createdAt,value
2022-12-17T00:05:26.795Z,23.83
2022-12-17T00:11:05.962Z,19.42
2022-12-17T00:16:45.353Z,21.77
2022-12-17T00:22:24.741Z,22.70
2022-12-17T00:28:04.602Z,21.05
2022-12-17T00:33:43.803Z,22.08
2022-12-17T00:39:22.975Z,20.85
2022-12-17T00:45:02.183Z,22.75
2022-12-17T00:50:41.305Z,17.48
2022-12-17T00:56:20.631Z,21.15
2022-12-17T01:02:00.143Z,22.05
2022-12-17T01:07:39.241Z,19.35
2022-12-17T01:13:18.496Z,19.70
2022-12-17T01:18:57.861Z,20.23
2022-12-17T01:24:37.085Z,19.75
2022-12-17T01:30:16.433Z,21.20
2022-12-17T01:35:55.730Z,21.23
2022-12-17T01:41:36.015Z,21.05
2022-12-17T01:47:15.133Z,20.70
2022-12-17T01:52:54.310Z,17.27
2022-12-17T01:58:33.553Z,17.65
2022-12-17T02:04:13.423Z,18.90
2022-12-17T02:10:03.625Z,18.27
2022-12-17T02:15:59.334Z,15.00
2022-12-17T02:21:39.773Z,17.52
2022-12-17T02:27:25.466Z,18.55
2022-12-17T02:33:07.605Z,18.77
2022-12-17T02:38:49.376Z,16.40
2022-12-17T02:44:30.448Z,16.80
2022-12-17T02:50:12.208Z,14.90
2022-12-17T02:55:52.872Z,15.95
2022-12-17T03:01:33.459Z,14.65
2022-12-17T03:07:15.093Z,14.80
2022-12-17T03:12:55.286Z,14.50
2022-12-17T03:18:34.582Z,14.95
2022-12-17T03:24:13.718Z,14.18
2022-12-17T03:29:52.870Z,14.48
2022-12-17T03:35:32.428Z,14.82
2022-12-17T03:41:11.603Z,12.88
2022-12-17T03:46:51.085Z,15.05
2022-12-17T03:52:30.551Z,14.73
2022-12-17T03:58:09.917Z,12.15
2022-12-17T04:03:49.235Z,10.30
2022-12-17T04:09:28.362Z,12.50
2022-12-17T04:15:07.643Z,13.15
2022-12-17T04:20:47.088Z,12.53
2022-12-17T04:26:26.287Z,13.05
2022-12-17T04:32:05.378Z,12.88
2022-12-17T04:37:44.596Z,9.90
2022-12-17T04:43:25.201Z,12.20
2022-12-17T04:49:04.533Z,13.13
2022-12-17T04:54:43.700Z,13.18
2022-12-17T05:00:23.453Z,13.02
2022-12-17T05:06:03.248Z,13.82
2022-12-17T05:11:42.599Z,11.75
2022-12-17T05:17:21.961Z,12.80
2022-12-17T05:23:01.054Z,13.20
2022-12-17T05:28:40.236Z,11.73
2022-12-17T05:34:19.536Z,12.32
2022-12-17T05:39:58.856Z,14.10
2022-12-17T05:45:38.182Z,13.48
2022-12-17T05:51:17.582Z,13.68
2022-12-17T05:56:57.075Z,11.27
2022-12-17T06:02:36.277Z,8.85
2022-12-17T06:08:27.179Z,13.47
2022-12-17T06:14:06.552Z,13.73
2022-12-17T06:19:45.861Z,12.33
2022-12-17T06:25:25.276Z,15.32
2022-12-17T06:38:37.001Z,14.27
2022-12-17T06:44:16.472Z,14.03
2022-12-17T06:50:01.087Z,10.27
2022-12-17T06:55:40.950Z,13.57
2022-12-17T07:01:20.360Z,13.90
2022-12-17T07:06:59.443Z,14.18
2022-12-17T07:12:38.744Z,13.25
2022-12-17T07:18:22.986Z,13.02
2022-12-17T07:24:02.706Z,13.82
2022-12-17T07:29:41.987Z,14.52
2022-12-17T07:35:21.430Z,13.52
2022-12-17T07:41:01.228Z,13.05
2022-12-17T07:46:40.711Z,13.48
2022-12-17T07:52:19.858Z,12.80
2022-12-17T07:57:59.425Z,11.63
2022-12-17T08:03:39.226Z,10.75
2022-12-17T08:14:58.377Z,12.38
2022-12-17T08:20:37.710Z,11.45
2022-12-17T08:26:17.184Z,11.30
2022-12-17T08:31:56.398Z,10.20
2022-12-17T08:37:46.617Z,12.27
2022-12-17T08:43:30.980Z,10.60
2022-12-17T08:49:10.889Z,11.45
2022-12-17T08:54:50.286Z,10.67
2022-12-17T09:00:30.122Z,11.73
2022-12-17T09:06:11.005Z,8.55
2022-12-17T09:11:50.220Z,10.32
2022-12-17T09:17:29.838Z,8.50
2022-12-17T09:23:09.050Z,8.95
2022-12-17T09:28:48.357Z,7.00
2022-12-17T09:34:27.797Z,9.23
2022-12-17T09:40:07.092Z,8.50
2022-12-17T09:45:53.865Z,10.30
2022-12-17T09:51:59.303Z,10.82
2022-12-17T09:57:46.610Z,11.35
2022-12-17T10:03:39.537Z,9.55
2022-12-17T10:09:28.097Z,7.28
2022-12-17T10:15:07.389Z,8.73
2022-12-17T10:20:55.076Z,6.03
2022-12-17T10:26:44.401Z,8.55
2022-12-17T10:32:34.234Z,7.47
2022-12-17T10:38:13.592Z,8.85
2022-12-17T10:43:57.414Z,9.73
2022-12-17T10:49:39.382Z,8.00
2022-12-17T10:55:24.316Z,6.78
2022-12-17T11:01:06.707Z,7.20
2022-12-17T11:06:49.723Z,6.25
2022-12-17T11:12:32.064Z,6.35
2022-12-17T11:18:12.056Z,7.00
2022-12-17T11:23:54.839Z,7.13
2022-12-17T11:29:34.209Z,8.50
2022-12-17T11:35:35.337Z,7.13
2022-12-17T11:41:26.528Z,8.13
2022-12-17T11:47:30.875Z,8.25
2022-12-17T11:53:28.190Z,7.88
2022-12-17T11:59:18.571Z,9.52
2022-12-17T12:05:10.041Z,7.30
2022-12-17T12:10:59.573Z,9.07
2022-12-17T12:16:52.154Z,8.27
2022-12-17T12:22:38.470Z,8.52
2022-12-17T12:28:56.302Z,9.88
2022-12-17T12:34:51.194Z,6.72
2022-12-17T12:40:51.411Z,10.57
2022-12-17T12:46:52.938Z,10.10
2022-12-17T12:52:42.314Z,9.02
2022-12-17T12:58:39.467Z,8.32
2022-12-17T13:04:21.725Z,6.45
2022-12-17T13:09:51.054Z,8.63
2022-12-17T13:15:36.343Z,5.53
2022-12-17T13:21:06.210Z,7.53
2022-12-17T13:26:39.044Z,5.80
2022-12-17T13:32:26.011Z,8.23
2022-12-17T13:37:55.687Z,7.45
2022-12-17T13:43:19.715Z,7.85
2022-12-17T13:48:41.978Z,8.68
2022-12-17T13:54:04.542Z,9.88
2022-12-17T13:59:25.474Z,9.13
2022-12-17T14:04:52.906Z,6.07
2022-12-17T14:10:18.470Z,9.45
2022-12-17T14:15:44.664Z,9.82
2022-12-17T14:21:05.934Z,9.85
2022-12-17T14:26:26.781Z,10.27
2022-12-17T14:32:00.489Z,9.68
2022-12-17T14:37:24.602Z,8.10
2022-12-17T14:42:46.022Z,8.43
2022-12-17T14:48:16.110Z,8.77
2022-12-17T14:53:37.219Z,8.73
2022-12-17T14:58:58.156Z,8.52
2022-12-17T15:04:20.067Z,8.75
2022-12-17T15:09:42.262Z,8.52
2022-12-17T15:15:03.705Z,8.63
2022-12-17T15:20:24.542Z,9.30
2022-12-17T15:25:47.484Z,9.88
2022-12-17T15:31:14.093Z,10.02
2022-12-17T15:36:34.945Z,9.55
2022-12-17T15:42:14.452Z,10.45
2022-12-17T15:47:35.492Z,9.00
2022-12-17T15:52:56.306Z,9.60
2022-12-17T15:58:19.168Z,10.25
2022-12-17T16:03:39.870Z,9.38
2022-12-17T16:09:00.609Z,10.75
2022-12-17T16:14:22.787Z,9.85
2022-12-17T16:19:43.843Z,10.85
2022-12-17T16:25:05.244Z,12.27
2022-12-17T16:30:25.892Z,11.75
2022-12-17T16:35:51.780Z,10.75
2022-12-17T16:41:14.483Z,11.93
2022-12-17T16:46:38.794Z,10.95
2022-12-17T16:51:59.670Z,11.50
2022-12-17T16:57:20.479Z,11.50
2022-12-17T17:02:42.479Z,12.85
2022-12-17T17:08:04.696Z,12.63
2022-12-17T17:13:25.258Z,12.98
2022-12-17T17:18:46.514Z,12.73
2022-12-17T17:24:21.223Z,12.57
2022-12-17T17:29:42.917Z,11.48
2022-12-17T17:35:04.565Z,16.63
2022-12-17T17:40:26.173Z,21.92
2022-12-17T17:45:47.065Z,23.23
2022-12-17T17:51:12.260Z,23.92
2022-12-17T17:56:35.457Z,22.55
2022-12-17T18:01:56.651Z,24.25
2022-12-17T18:07:25.152Z,27.98
2022-12-17T18:13:05.230Z,28.70
2022-12-17T18:18:25.985Z,23.63
2022-12-17T18:23:48.557Z,22.50
2022-12-17T18:29:17.917Z,24.10
2022-12-17T18:34:38.836Z,21.37
2022-12-17T18:39:59.687Z,22.27
2022-12-17T18:45:20.559Z,18.02
2022-12-17T18:50:41.466Z,24.10
2022-12-17T18:56:12.183Z,25.65
2022-12-17T19:01:36.421Z,45.53
2022-12-17T19:06:57.096Z,41.63
2022-12-17T19:12:18.386Z,36.00
2022-12-17T19:17:39.154Z,39.67
2022-12-17T19:23:00.120Z,30.92
2022-12-17T19:28:21.048Z,20.98
2022-12-17T19:33:42.564Z,17.40
2022-12-17T19:39:06.457Z,15.73
2022-12-17T19:44:27.334Z,13.60
2022-12-17T19:49:48.324Z,13.20
2022-12-17T19:55:09.608Z,12.23
2022-12-17T20:00:30.530Z,12.02
2022-12-17T20:05:52.109Z,13.88
2022-12-17T20:11:34.837Z,13.23
2022-12-17T20:16:58.446Z,12.57
2022-12-17T20:22:19.423Z,12.93
2022-12-17T20:27:40.107Z,12.23
2022-12-17T20:33:00.868Z,12.52
2022-12-17T20:38:22.254Z,14.55
2022-12-17T20:43:43.479Z,28.02
2022-12-17T20:49:05.649Z,25.00
2022-12-17T20:54:26.415Z,23.13
2022-12-17T20:59:47.403Z,20.92
2022-12-17T21:05:08.439Z,21.13
2022-12-17T21:10:29.465Z,19.27
2022-12-17T21:15:51.031Z,21.17
2022-12-17T21:21:16.942Z,20.10
2022-12-17T21:26:41.787Z,15.82
2022-12-17T21:32:03.350Z,12.52
2022-12-17T21:37:24.219Z,12.88
2022-12-17T21:43:03.116Z,11.10
2022-12-17T21:48:24.782Z,12.00
2022-12-17T21:53:46.081Z,10.25
2022-12-17T21:59:06.963Z,11.75
2022-12-17T22:04:27.748Z,9.73
2022-12-17T22:10:06.022Z,11.18
2022-12-17T22:15:34.991Z,10.73
2022-12-17T22:21:09.460Z,15.05
2022-12-17T22:26:30.281Z,10.00
2022-12-17T22:32:09.686Z,8.70
2022-12-17T22:39:17.949Z,9.63
2022-12-17T22:44:37.805Z,10.60
2022-12-17T22:49:11.329Z,49.75
2022-12-17T22:54:32.163Z,42.78
2022-12-17T22:59:53.569Z,32.08
2022-12-17T23:05:14.775Z,30.65
2022-12-17T23:10:35.458Z,21.20
2022-12-17T23:15:56.288Z,19.20
2022-12-17T23:21:25.479Z,14.32
2022-12-17T23:26:46.497Z,30.35
2022-12-17T23:32:07.283Z,17.90
2022-12-17T23:37:28.128Z,16.77
2022-12-17T23:42:49.190Z,18.58
2022-12-17T23:48:09.965Z,16.65
2022-12-17T23:53:32.395Z,20.63
2022-12-17T23:59:01.123Z,22.40
